Карточка аэропорта UNWW

Внимание!
Информация на этой странице в стадии наполнения.
Если вы не увидели какой-то информации, или заметили неточность - пожалуйста сообщите нам!
Спасибо!
Команда RU-STAFF
Название аэропортаСпиченково
Название аэропорта (англ.)Spichenkovo
Превышение1023 ft. (311.8 m.)
Координаты53°48.714', 86°52.704'
Высота перехода800m
Эшелон переходаFL050
Коды ответчика5270-5277
Зона ОрВДНовосибирск РПИ (UNNT)
Данные METARUNWW 221200Z 13002MPS 9999 -SHRA BKN023CB 15/11 Q1016 R19/250250 NOSIG RMK QFE734
Проноз погоды (TAF)UNWW 221100Z 2212/2312 22005G10MPS 8000 BKN020CB TX20/2309Z TN09/2222Z TEMPO 2212/2216 26009G20MPS -TSRA BKN011CB BECMG 2216/2218 18003G08MPS BKN040CB TEMPO 2303/2312 23006G13MPS -TSRA BKN016CB
NOTAMshow/hide NOTAM
AWOS   TABLE

Информация о ВПП

ВПП Длина ВПП (м.) Покрытие Курс ВПП Частота ILS
192679Цементобетон194111.1
012679Цементобетон14 

Диспетчерские позиции

Позывной Наименование органа УВД Частота
UNWW_TWRНовокузнецк-Старт121.2
UNWW_APPНовокузнецк-Подход118.6



Спутниковое изображение